createdAt,value
2019-04-20T00:01:01.444Z,44.61
2019-04-20T00:03:37.995Z,45.04
2019-04-20T00:06:04.924Z,44.98
2019-04-20T00:08:39.079Z,44.90
2019-04-20T00:11:17.267Z,45.31
2019-04-20T00:13:51.787Z,44.92
2019-04-20T00:16:14.672Z,44.90
2019-04-20T00:18:51.423Z,44.99
2019-04-20T00:21:43.109Z,44.86
2019-04-20T00:24:21.106Z,45.59
2019-04-20T00:27:20.250Z,45.14
2019-04-20T00:29:36.730Z,45.26
2019-04-20T00:32:05.397Z,45.44
2019-04-20T00:34:29.880Z,45.30
2019-04-20T00:36:56.396Z,45.39
2019-04-20T00:39:27.869Z,45.52
2019-04-20T00:42:05.593Z,45.52
2019-04-20T00:44:36.222Z,46.01
2019-04-20T00:47:15.814Z,45.91
2019-04-20T00:49:48.625Z,45.88
2019-04-20T00:52:29.073Z,45.89
2019-04-20T00:54:41.204Z,46.41
2019-04-20T00:57:22.260Z,46.24
2019-04-20T01:00:07.581Z,46.28
2019-04-20T01:02:29.915Z,46.71
2019-04-20T01:05:05.091Z,48.06
2019-04-20T01:07:39.421Z,47.66
2019-04-20T01:10:11.138Z,46.64
2019-04-20T01:12:43.864Z,47.01
2019-04-20T01:15:24.371Z,47.69
2019-04-20T01:17:47.828Z,47.03
2019-04-20T01:20:18.809Z,47.62
2019-04-20T01:22:54.645Z,47.83
2019-04-20T01:25:28.320Z,48.25
2019-04-20T01:28:07.779Z,47.99
2019-04-20T01:30:35.003Z,48.05
2019-04-20T01:33:16.225Z,47.77
2019-04-20T01:35:51.602Z,48.40
2019-04-20T01:38:22.394Z,48.37
2019-04-20T01:40:38.196Z,48.13
2019-04-20T01:43:10.041Z,47.11
2019-04-20T01:45:43.234Z,47.44
2019-04-20T01:48:20.235Z,47.88
2019-04-20T01:50:54.910Z,48.36
2019-04-20T01:53:41.432Z,48.20
2019-04-20T01:56:13.741Z,48.50
2019-04-20T01:59:08.596Z,47.83
2019-04-20T02:01:33.662Z,47.57
2019-04-20T02:04:16.956Z,47.54
2019-04-20T02:06:47.202Z,47.37
2019-04-20T02:09:18.474Z,47.39
2019-04-20T02:11:49.754Z,47.73
2019-04-20T02:14:24.966Z,47.78
2019-04-20T02:16:58.436Z,48.72
2019-04-20T02:19:34.790Z,47.87
2019-04-20T02:22:07.646Z,48.02
2019-04-20T02:24:27.933Z,48.67
2019-04-20T02:26:59.845Z,52.24
2019-04-20T02:29:50.979Z,53.53
2019-04-20T02:32:36.542Z,56.71
2019-04-20T02:38:12.553Z,59.69
2019-04-20T02:40:47.535Z,59.65
2019-04-20T02:43:11.923Z,60.22
2019-04-20T02:45:40.365Z,61.05
2019-04-20T02:48:07.726Z,57.63
2019-04-20T02:50:44.328Z,57.90
2019-04-20T02:53:21.976Z,55.75
2019-04-20T02:58:28.242Z,54.12
2019-04-20T03:00:44.454Z,53.71
2019-04-20T03:03:10.199Z,54.14
2019-04-20T03:05:39.464Z,55.02
2019-04-20T03:08:19.756Z,55.21
2019-04-20T03:11:00.753Z,54.81
2019-04-20T03:13:26.964Z,54.05
2019-04-20T03:16:00.121Z,55.16
2019-04-20T03:18:34.022Z,57.44
2019-04-20T03:21:07.988Z,58.19
2019-04-20T03:23:42.565Z,59.63
2019-04-20T03:26:12.757Z,60.77
2019-04-20T03:28:53.861Z,62.76
2019-04-20T03:32:15.066Z,63.52
2019-04-20T03:36:59.210Z,62.09
2019-04-20T03:39:28.394Z,62.89
2019-04-20T03:41:46.981Z,64.04
2019-04-20T03:44:18.234Z,64.86
2019-04-20T03:46:55.002Z,64.97
2019-04-20T03:49:42.408Z,65.14
2019-04-20T03:52:28.714Z,62.09
2019-04-20T03:55:21.084Z,58.79
2019-04-20T03:58:02.917Z,56.19
2019-04-20T04:00:42.544Z,55.55
2019-04-20T04:03:39.167Z,55.13
2019-04-20T04:05:55.539Z,54.33
2019-04-20T04:08:26.611Z,54.39
2019-04-20T04:11:10.862Z,54.29
2019-04-20T04:13:23.052Z,53.98
2019-04-20T04:15:59.243Z,54.52
2019-04-20T04:18:34.069Z,55.47
2019-04-20T04:21:06.338Z,56.40
2019-04-20T04:23:49.006Z,56.55
2019-04-20T04:26:22.280Z,56.14
2019-04-20T04:28:54.767Z,56.70
2019-04-20T04:31:25.962Z,57.72
2019-04-20T04:34:12.588Z,57.26
2019-04-20T04:36:30.728Z,55.87
2019-04-20T04:39:11.460Z,54.90
2019-04-20T04:41:36.255Z,54.59
2019-04-20T04:44:09.650Z,53.70
2019-04-20T04:46:25.076Z,53.82
2019-04-20T04:49:05.345Z,52.87
2019-04-20T04:51:40.317Z,51.16
2019-04-20T04:54:12.928Z,49.77
2019-04-20T04:56:33.782Z,48.69
2019-04-20T04:59:04.589Z,47.96
2019-04-20T05:01:37.289Z,48.00
2019-04-20T05:04:25.051Z,46.91
2019-04-20T05:06:54.726Z,45.36
2019-04-20T05:09:15.450Z,45.98
2019-04-20T05:11:45.105Z,44.97
2019-04-20T05:14:23.581Z,44.12
2019-04-20T05:17:04.572Z,44.61
2019-04-20T05:19:46.135Z,43.41
2019-04-20T05:22:19.404Z,43.56
2019-04-20T05:25:00.552Z,42.84
2019-04-20T05:27:46.588Z,42.26
2019-04-20T05:30:01.132Z,42.03
2019-04-20T05:32:44.059Z,42.37
2019-04-20T05:35:29.536Z,42.49
2019-04-20T05:38:11.496Z,40.40
2019-04-20T05:40:35.435Z,40.43
2019-04-20T05:43:20.652Z,41.51
2019-04-20T05:45:50.209Z,39.54
2019-04-20T05:48:27.300Z,39.12
2019-04-20T05:50:57.497Z,39.30
2019-04-20T05:53:40.531Z,39.04
2019-04-20T05:56:02.865Z,37.92
2019-04-20T05:58:41.246Z,37.84
2019-04-20T06:01:13.558Z,38.17
2019-04-20T06:03:42.332Z,36.01
2019-04-20T06:06:16.836Z,36.91
2019-04-20T06:08:53.815Z,35.67
2019-04-20T06:11:28.276Z,35.00
2019-04-20T06:14:02.619Z,33.17
2019-04-20T06:16:55.778Z,30.88
2019-04-20T06:19:42.225Z,29.79
2019-04-20T06:22:14.680Z,27.91
2019-04-20T06:24:57.290Z,26.65
2019-04-20T06:27:14.565Z,25.71
2019-04-20T06:29:45.743Z,24.21
2019-04-20T06:32:28.877Z,22.18
2019-04-20T06:34:57.090Z,21.61
2019-04-20T06:37:25.781Z,20.62
2019-04-20T06:40:13.587Z,21.00
2019-04-20T06:42:28.991Z,23.82
2019-04-20T06:45:04.254Z,23.76
2019-04-20T06:47:39.292Z,21.76
2019-04-20T06:50:08.647Z,20.78
2019-04-20T06:53:01.574Z,22.54
2019-04-20T06:55:38.617Z,21.04
2019-04-20T06:58:22.170Z,20.00
2019-04-20T07:00:38.362Z,21.02
2019-04-20T07:03:26.217Z,18.96
2019-04-20T07:05:41.773Z,20.21
2019-04-20T07:08:35.075Z,22.80
2019-04-20T07:10:51.949Z,21.27
2019-04-20T07:13:12.884Z,23.26
2019-04-20T07:15:54.194Z,23.99
2019-04-20T07:18:36.839Z,22.56
2019-04-20T07:21:27.277Z,21.93
2019-04-20T07:23:54.523Z,23.09
2019-04-20T07:26:24.368Z,23.67
2019-04-20T07:28:58.982Z,22.05
2019-04-20T07:31:27.735Z,20.31
2019-04-20T07:33:58.128Z,19.67
2019-04-20T07:36:32.239Z,19.29
2019-04-20T07:39:07.899Z,19.67
2019-04-20T07:41:43.012Z,19.81
2019-04-20T07:44:11.879Z,20.56
2019-04-20T07:46:55.122Z,20.79
2019-04-20T07:49:12.858Z,21.44
2019-04-20T07:51:31.551Z,19.79
2019-04-20T07:54:27.042Z,19.83
2019-04-20T07:56:50.709Z,19.76
2019-04-20T07:59:14.288Z,18.56
2019-04-20T08:02:16.855Z,17.34
2019-04-20T08:04:47.591Z,19.88
2019-04-20T08:07:07.380Z,17.86
2019-04-20T08:09:44.168Z,21.24
2019-04-20T08:12:48.003Z,21.11
2019-04-20T08:15:27.328Z,19.22
2019-04-20T08:17:51.018Z,18.72
2019-04-20T08:20:18.877Z,19.98
2019-04-20T08:22:53.059Z,21.65
2019-04-20T08:25:16.686Z,22.77
2019-04-20T08:27:55.129Z,19.06
2019-04-20T08:30:56.085Z,21.81
2019-04-20T08:33:24.527Z,18.09
2019-04-20T08:36:04.976Z,17.91
2019-04-20T08:39:01.333Z,17.94
2019-04-20T08:41:12.032Z,17.52
2019-04-20T08:46:23.460Z,20.01
2019-04-20T08:48:53.623Z,24.15
2019-04-20T08:51:25.900Z,19.77
2019-04-20T08:53:59.378Z,18.82
2019-04-20T08:56:19.332Z,21.99
2019-04-20T08:58:41.581Z,21.11
2019-04-20T09:01:20.083Z,19.87
2019-04-20T09:03:56.448Z,18.10
2019-04-20T09:06:33.670Z,19.91
2019-04-20T09:09:07.632Z,22.53
2019-04-20T09:11:47.967Z,16.69
2019-04-20T09:14:16.257Z,17.02
2019-04-20T09:16:55.643Z,18.37
2019-04-20T09:19:32.486Z,17.27
2019-04-20T09:22:24.416Z,18.53
2019-04-20T09:25:13.405Z,15.08
2019-04-20T09:27:28.971Z,15.85
2019-04-20T09:30:06.212Z,15.50
2019-04-20T09:32:40.292Z,15.92
2019-04-20T09:35:20.980Z,18.30
2019-04-20T09:38:03.250Z,20.13
2019-04-20T09:40:35.313Z,18.49
2019-04-20T09:43:08.808Z,19.57
2019-04-20T09:45:49.026Z,21.32
2019-04-20T09:48:25.355Z,20.45
2019-04-20T09:51:12.711Z,21.04
2019-04-20T09:53:37.085Z,20.01
2019-04-20T09:56:14.566Z,18.72
2019-04-20T09:58:45.147Z,19.09
2019-04-20T10:01:13.643Z,21.03
2019-04-20T10:03:31.838Z,21.19
2019-04-20T10:06:03.423Z,22.37
2019-04-20T10:08:43.578Z,20.16
2019-04-20T10:11:07.628Z,20.75
2019-04-20T10:13:38.514Z,21.05
2019-04-20T10:16:09.159Z,20.94
2019-04-20T10:18:45.546Z,20.02
2019-04-20T10:21:13.662Z,19.75
2019-04-20T10:23:44.890Z,22.92
2019-04-20T10:26:16.454Z,21.96
2019-04-20T10:28:47.732Z,19.98
2019-04-20T10:31:18.538Z,21.03
2019-04-20T10:33:49.390Z,22.01
2019-04-20T10:36:39.587Z,22.79
2019-04-20T10:39:11.268Z,22.04
2019-04-20T10:41:48.927Z,21.14
2019-04-20T10:44:14.709Z,21.52
2019-04-20T10:46:46.939Z,23.08
2019-04-20T10:49:17.796Z,23.73
2019-04-20T10:51:49.568Z,25.39
2019-04-20T10:54:20.485Z,26.85
2019-04-20T10:56:51.842Z,26.55
2019-04-20T10:59:25.819Z,25.89
2019-04-20T11:01:58.107Z,26.04
2019-04-20T11:04:28.779Z,27.42
2019-04-20T11:07:00.734Z,28.64
2019-04-20T11:09:32.476Z,28.92
2019-04-20T11:12:04.223Z,27.30
2019-04-20T11:14:38.742Z,27.31
2019-04-20T11:17:08.696Z,26.62
2019-04-20T11:19:39.582Z,26.84
2019-04-20T11:22:10.637Z,27.83
2019-04-20T11:24:41.321Z,26.82
2019-04-20T11:27:12.180Z,27.04
2019-04-20T11:29:44.320Z,28.24
2019-04-20T11:32:15.910Z,27.50
2019-04-20T11:34:47.128Z,28.27
2019-04-20T11:37:19.291Z,29.40
2019-04-20T11:39:50.814Z,27.59
2019-04-20T11:42:21.808Z,27.96
2019-04-20T11:44:52.920Z,28.21
2019-04-20T11:47:25.041Z,28.87
2019-04-20T11:49:55.969Z,27.57
2019-04-20T11:52:28.119Z,28.62
2019-04-20T11:55:00.285Z,27.38
2019-04-20T11:57:31.283Z,27.90
2019-04-20T12:00:03.569Z,30.03
2019-04-20T12:02:54.670Z,27.47
2019-04-20T12:05:35.181Z,27.30
2019-04-20T12:08:07.071Z,26.65
2019-04-20T12:10:39.082Z,29.61
2019-04-20T12:13:12.968Z,28.87
2019-04-20T12:15:43.452Z,27.98
2019-04-20T12:18:15.740Z,27.83
2019-04-20T12:20:47.093Z,27.86
2019-04-20T12:23:18.085Z,28.53
2019-04-20T12:25:50.090Z,28.26
2019-04-20T12:28:21.938Z,28.26
2019-04-20T12:30:55.950Z,28.00
2019-04-20T12:33:26.417Z,28.03
2019-04-20T12:35:58.369Z,27.62
2019-04-20T12:38:30.749Z,27.19
2019-04-20T12:41:04.880Z,27.73
2019-04-20T12:43:34.235Z,26.82
2019-04-20T12:46:05.510Z,27.60
2019-04-20T12:48:37.631Z,27.11
2019-04-20T12:51:09.551Z,28.79
2019-04-20T12:53:40.599Z,27.05
2019-04-20T12:56:12.658Z,26.53
2019-04-20T12:58:43.690Z,27.37
2019-04-20T13:01:16.080Z,27.22
2019-04-20T13:03:47.682Z,27.11
2019-04-20T13:06:19.592Z,27.21
2019-04-20T13:08:53.797Z,27.51
2019-04-20T13:11:43.608Z,27.25
2019-04-20T13:14:50.589Z,26.93
2019-04-20T13:17:22.128Z,27.45
2019-04-20T13:19:53.337Z,27.57
2019-04-20T13:22:25.342Z,27.94
2019-04-20T13:24:57.033Z,27.88
2019-04-20T13:27:29.107Z,28.09
2019-04-20T13:30:00.855Z,27.66
2019-04-20T13:32:31.916Z,28.10
2019-04-20T13:35:04.426Z,28.68
2019-04-20T13:37:38.066Z,27.47
2019-04-20T13:40:09.046Z,28.72
2019-04-20T13:42:39.785Z,25.83
2019-04-20T13:45:12.827Z,27.03
2019-04-20T13:47:45.183Z,25.98
2019-04-20T13:50:17.909Z,27.34
2019-04-20T13:52:49.336Z,27.45
2019-04-20T13:55:23.434Z,26.81
2019-04-20T13:58:00.072Z,27.05
2019-04-20T14:00:54.079Z,27.77
2019-04-20T14:03:25.135Z,28.07
2019-04-20T14:05:56.473Z,28.96
2019-04-20T14:08:29.550Z,26.51
2019-04-20T14:11:00.381Z,27.91
2019-04-20T14:13:38.953Z,27.62
2019-04-20T14:16:04.994Z,27.24
2019-04-20T14:18:35.942Z,27.16
2019-04-20T14:21:08.305Z,27.96
2019-04-20T14:23:39.344Z,28.56
2019-04-20T14:26:10.104Z,28.60
2019-04-20T14:28:40.935Z,27.40
2019-04-20T14:31:12.041Z,27.13
2019-04-20T14:33:43.023Z,27.44
2019-04-20T14:36:14.909Z,26.32
2019-04-20T14:38:48.183Z,28.20
2019-04-20T14:41:20.160Z,29.14
2019-04-20T14:43:51.275Z,29.32
2019-04-20T14:46:23.003Z,28.11
2019-04-20T14:48:54.606Z,26.44
2019-04-20T14:51:25.829Z,26.11
2019-04-20T14:53:56.598Z,27.15
2019-04-20T14:56:27.456Z,28.66
2019-04-20T14:59:07.751Z,27.37
2019-04-20T15:01:42.698Z,26.76
2019-04-20T15:04:18.068Z,25.76
2019-04-20T15:06:46.590Z,26.39
2019-04-20T15:09:18.792Z,25.50
2019-04-20T15:11:50.640Z,26.38
2019-04-20T15:14:22.691Z,25.12
2019-04-20T15:16:53.707Z,24.87
2019-04-20T15:19:36.350Z,26.22
2019-04-20T15:22:27.328Z,24.57
2019-04-20T15:24:58.096Z,24.70
2019-04-20T15:27:28.712Z,25.11
2019-04-20T15:30:00.302Z,23.29
2019-04-20T15:32:31.410Z,24.73
2019-04-20T15:35:03.053Z,24.07
2019-04-20T15:37:35.091Z,25.27
2019-04-20T15:40:06.841Z,23.57
2019-04-20T15:42:49.621Z,23.85
2019-04-20T15:45:11.436Z,23.83
2019-04-20T15:47:43.677Z,24.73
2019-04-20T15:50:15.871Z,25.73
2019-04-20T15:52:52.215Z,24.71
2019-04-20T15:55:26.507Z,23.42
2019-04-20T15:57:51.557Z,25.04
2019-04-20T16:00:22.926Z,25.53
2019-04-20T16:02:59.125Z,24.21
2019-04-20T16:05:49.454Z,24.77
2019-04-20T16:08:32.432Z,24.42
2019-04-20T16:11:04.876Z,26.08
2019-04-20T16:13:40.041Z,24.85
2019-04-20T16:16:09.948Z,24.94
2019-04-20T16:18:41.255Z,25.72
2019-04-20T16:21:19.576Z,25.06
2019-04-20T16:24:04.466Z,25.74
2019-04-20T16:26:55.611Z,27.08
2019-04-20T16:29:26.524Z,26.63
2019-04-20T16:31:58.330Z,27.74
2019-04-20T16:34:29.644Z,28.72
2019-04-20T16:37:00.435Z,29.26
2019-04-20T16:39:32.293Z,29.76
2019-04-20T16:42:04.445Z,30.79
2019-04-20T16:44:35.565Z,27.67
2019-04-20T16:47:06.408Z,29.35
2019-04-20T16:49:37.167Z,26.75
2019-04-20T16:52:07.792Z,27.47
2019-04-20T16:54:39.695Z,30.47
2019-04-20T16:57:12.501Z,29.23
2019-04-20T16:59:48.169Z,29.00
2019-04-20T17:02:17.475Z,29.19
2019-04-20T17:04:50.348Z,29.46
2019-04-20T17:07:40.151Z,28.68
2019-04-20T17:10:13.793Z,30.25
2019-04-20T17:12:46.024Z,30.80
2019-04-20T17:15:19.259Z,30.56
2019-04-20T17:17:51.552Z,31.11
2019-04-20T17:20:25.206Z,31.50
2019-04-20T17:22:56.225Z,31.68
2019-04-20T17:25:28.056Z,31.60
2019-04-20T17:28:18.767Z,32.71
2019-04-20T17:31:09.154Z,32.74
2019-04-20T17:33:58.481Z,32.92
2019-04-20T17:36:24.953Z,33.54
2019-04-20T17:38:55.977Z,32.82
2019-04-20T17:41:44.503Z,33.00
2019-04-20T17:44:20.813Z,33.46
2019-04-20T17:46:46.703Z,33.93
2019-04-20T17:49:20.403Z,34.38
2019-04-20T17:51:59.141Z,34.50
2019-04-20T17:54:29.365Z,34.93
2019-04-20T17:57:00.602Z,34.50
2019-04-20T17:59:32.397Z,34.63
2019-04-20T18:02:42.930Z,34.61
2019-04-20T18:05:22.900Z,35.35
2019-04-20T18:07:52.312Z,35.39
2019-04-20T18:10:26.145Z,37.52
2019-04-20T18:12:44.613Z,37.42
2019-04-20T18:15:34.864Z,36.05
2019-04-20T18:18:18.711Z,36.32
2019-04-20T18:20:56.882Z,35.97
2019-04-20T18:23:34.371Z,36.34
2019-04-20T18:26:25.928Z,37.50
2019-04-20T18:29:00.011Z,36.90
2019-04-20T18:31:24.151Z,36.79
2019-04-20T18:34:00.764Z,36.64
2019-04-20T18:36:37.644Z,36.67
2019-04-20T18:39:09.737Z,36.67
2019-04-20T18:41:44.709Z,37.23
2019-04-20T18:44:10.790Z,37.20
2019-04-20T18:47:09.483Z,37.36
2019-04-20T18:49:27.214Z,37.20
2019-04-20T18:51:48.003Z,37.72
2019-04-20T18:54:22.034Z,37.67
2019-04-20T18:56:53.345Z,37.73
2019-04-20T18:59:31.886Z,38.24
2019-04-20T19:01:57.115Z,38.16
2019-04-20T19:04:30.020Z,37.90
2019-04-20T19:07:01.640Z,38.14
2019-04-20T19:09:34.253Z,37.59
2019-04-20T19:12:08.105Z,37.57
2019-04-20T19:14:51.380Z,37.59
2019-04-20T19:17:58.148Z,37.66
2019-04-20T19:20:23.716Z,37.69
2019-04-20T19:22:55.690Z,38.33
2019-04-20T19:25:31.642Z,39.89
2019-04-20T19:28:04.722Z,41.31
2019-04-20T19:30:47.073Z,41.22
2019-04-20T19:33:27.770Z,40.46
2019-04-20T19:35:56.357Z,41.33
2019-04-20T19:38:24.130Z,41.39
2019-04-20T19:41:01.706Z,41.10
2019-04-20T19:43:33.720Z,41.54
2019-04-20T19:48:43.578Z,42.41
2019-04-20T19:51:31.008Z,42.96
2019-04-20T19:54:04.427Z,42.98
2019-04-20T19:56:28.220Z,44.04
2019-04-20T19:58:59.513Z,45.02
2019-04-20T20:01:15.733Z,45.86
2019-04-20T20:03:48.331Z,46.92
2019-04-20T20:06:29.362Z,47.66
2019-04-20T20:08:57.393Z,48.08
2019-04-20T20:11:30.388Z,49.23
2019-04-20T20:13:58.607Z,49.71
2019-04-20T20:16:50.639Z,49.84
2019-04-20T20:19:12.148Z,50.51
2019-04-20T20:21:54.526Z,50.24
2019-04-20T20:24:11.296Z,49.30
2019-04-20T20:26:48.371Z,48.54
2019-04-20T20:29:23.138Z,47.37
2019-04-20T20:31:58.171Z,47.82
2019-04-20T20:34:26.735Z,48.06
2019-04-20T20:36:56.004Z,49.17
2019-04-20T20:39:29.543Z,49.27
2019-04-20T20:42:10.114Z,48.61
2019-04-20T20:44:41.162Z,47.64
2019-04-20T20:47:30.057Z,48.12
2019-04-20T20:49:56.815Z,47.15
2019-04-20T20:52:21.900Z,47.03
2019-04-20T20:54:49.830Z,47.49
2019-04-20T20:57:18.659Z,46.69
2019-04-20T20:59:54.839Z,47.40
2019-04-20T21:02:23.662Z,46.57
2019-04-20T21:04:48.320Z,47.78
2019-04-20T21:07:20.505Z,48.49
2019-04-20T21:09:52.436Z,49.80
2019-04-20T21:12:24.880Z,50.77
2019-04-20T21:15:00.336Z,49.74
2019-04-20T21:17:39.364Z,50.04
2019-04-20T21:20:19.125Z,50.52
2019-04-20T21:22:57.486Z,50.74
2019-04-20T21:25:17.014Z,50.44
2019-04-20T21:27:48.716Z,50.31
2019-04-20T21:30:30.848Z,50.60
2019-04-20T21:32:57.292Z,50.03
2019-04-20T21:35:25.867Z,47.65
2019-04-20T21:38:02.402Z,48.09
2019-04-20T21:40:36.107Z,49.18
2019-04-20T21:43:05.775Z,49.13
2019-04-20T21:45:37.412Z,49.74
2019-04-20T21:48:09.744Z,48.57
2019-04-20T21:50:59.822Z,47.59
2019-04-20T21:53:18.471Z,47.64
2019-04-20T21:55:43.815Z,47.60
2019-04-20T21:58:19.429Z,48.06
2019-04-20T22:01:07.242Z,46.39
2019-04-20T22:03:26.778Z,45.50
2019-04-20T22:06:07.031Z,44.97
2019-04-20T22:08:44.617Z,45.54
2019-04-20T22:11:11.583Z,46.25
2019-04-20T22:13:44.635Z,45.54
2019-04-20T22:16:16.710Z,45.60
2019-04-20T22:18:53.998Z,45.71
2019-04-20T22:21:26.579Z,46.34
2019-04-20T22:24:06.556Z,46.42
2019-04-20T22:26:33.705Z,46.72
2019-04-20T22:28:58.296Z,46.88
2019-04-20T22:31:29.932Z,46.55
2019-04-20T22:34:07.703Z,46.74
2019-04-20T22:36:38.601Z,46.43
2019-04-20T22:39:13.794Z,46.37
2019-04-20T22:42:09.041Z,46.77
2019-04-20T22:44:36.480Z,46.82
2019-04-20T22:47:13.845Z,46.20
2019-04-20T22:49:52.451Z,46.44
2019-04-20T22:52:29.433Z,47.42
2019-04-20T22:55:01.385Z,47.43
2019-04-20T22:57:31.646Z,47.65
2019-04-20T22:59:56.860Z,47.21
2019-04-20T23:02:24.490Z,46.97
2019-04-20T23:04:54.929Z,47.50
2019-04-20T23:07:26.464Z,47.89
2019-04-20T23:09:59.762Z,48.24
2019-04-20T23:12:30.914Z,48.98
2019-04-20T23:15:02.797Z,50.13
2019-04-20T23:17:39.887Z,50.64
2019-04-20T23:20:13.226Z,50.57
2019-04-20T23:22:43.979Z,50.60
2019-04-20T23:25:11.667Z,50.61
2019-04-20T23:27:43.704Z,50.31
2019-04-20T23:30:23.647Z,50.50
2019-04-20T23:32:47.704Z,50.66
2019-04-20T23:35:22.742Z,50.76
2019-04-20T23:37:50.877Z,51.50
2019-04-20T23:40:21.691Z,51.98
2019-04-20T23:42:58.113Z,52.29
2019-04-20T23:45:50.783Z,52.37
2019-04-20T23:48:42.745Z,53.10
2019-04-20T23:51:37.925Z,53.28
2019-04-20T23:53:54.363Z,53.57
2019-04-20T23:56:18.491Z,53.86
2019-04-20T23:58:52.928Z,53.56
